Terminal Aerodrome Forecast
Issued by NWS

Home | Current Version | Previous Version | Text Only | Print | Product List | Glossary On
Versions: 1 2 3 4 5 6 7 8 9 10 11 12 13 14 15 16 17
927
FTUS43 KEAX 110520
TAFSTJ
TAF
KSTJ 110520Z 1106/1206 04008KT P6SM SCT100
     FM110900 03008KT P6SM BKN025
     FM111500 12006KT P6SM SCT030 SCT050=

USA.gov is the U.S. government's official web portal to all federal, state and local government web resources and services.